AirNav   Bose ProFlight Series 2 Headset
 
 1231 users online  

47KY B M H Heliport
Hardinsburg, Kentucky, USA

GOING TO HARDINSBURG?


FAA INFORMATION EFFECTIVE 26 MARCH 2020

Location

FAA Identifier: 47KY
Lat/Long: 37-45-57.7000N 086-26-22.9300W
37-45.961667N 086-26.382167W
37.7660278,-86.4397028
(estimated)
Elevation: 730 ft. / 223 m (estimated)
729
Variation: 01W (1985)
From city: 1 mile SE of HARDINSBURG, KY
Time zone: UTC -5 (UTC -6 during Standard Time)
Zip code: 40143

Heliport Operations

Heliport use: Private use. Permission required prior to landing
Activation date: 09/1980
Control tower: no
ARTCC: INDIANAPOLIS CENTER
FSS: LOUISVILLE FLIGHT SERVICE STATION
Attendance: CONTINUOUS
Wind indicator: lighted
Segmented circle: no
Lights: FOR HELIPAD LIGHTS CALL 270-756-6534.
Beacon: white-green-yellow (heliport)
FOR ROTG BCN CALL 270-756-6534.

Nearby radio navigation aids

VOR radial/distance  VOR name  Freq  Var
MYSr231/(12.0)MYSTIC VOR108.2001W
FTKr250/23.7FORT KNOX VOR/DME109.6001W
OWBr092/34.5OWENSBORO VOR/DME108.6004W
EWOr282/37.1NEW HOPE VOR/DME110.8001E

 
NDB name  Hdg/Dist  Freq  Var  ID
GODMAN245/24.839603WGOI --. --- ..

Heliport Services

Runway Information

Helipad H1

Dimensions: 69 x 69 ft. / 21 x 21 m
Surface: concrete
Runway edge lights: PERI
Latitude: 37-45.961667N
Longitude: 086-26.382167W
Elevation: 730.0 ft.
Traffic pattern: leftleft
Markings: , in good condition
Obstructions: 40 ft. pline, marked and lighted, 37 ft. from runway
PLINE LCTD 37FT SE OF HELIPAD.

Heliport Ownership and Management from official FAA records

Ownership: Privately-owned
Owner: BRECKINRIDGE MEMORIAL HOSP
1011 OLD HIGHWAY 60
HARDINSBURG, KY 40143-9732
Phone 270-756-0701
Manager: BRECKINRIDGE MEMORIAL HOSP
1011 OLD HIGHWAY 60
HARDINSBURG, KY 40143-9732
Phone 270-756-0701
CONTACT RICKY MOORE, DIRECTOR OF RISK MANAGEMENT

Heliport Operational Statistics

Aircraft based on the field: 1
Helicopters: 1
    

Additional Remarks

FOR CD CTC LOUISVILLE APCH AT 502-375-7499

Instrument Procedures

There are no published instrument procedures at 47KY.

Some nearby airports with instrument procedures:

I93 - Breckinridge County Airport (1 nm N)
KTEL - Perry County Municipal Airport (19 nm NW)
KY8 - Hancock County Airport-Ron Lewis Field (23 nm NW)
M20 - Leitchfield-Grayson County Airport (24 nm S)
KFTK - Godman Army Airfield (24 nm E)
 
Loc | Ops | Rwys | IFR | FBO | Links
Com | Nav | Svcs | Stats | Notes
Area around 47KY (B M H Heliport)
 
Road maps at: MapQuest Bing Google
 
Aerial photo
No photo
 
Sectional chart

 
Airport distance calculator
Flying to B M H Heliport? Find the distance to fly.

From to 47KY

Sunrise and sunset
Times for 30-Mar-2020
 Local
(UTC-5)
 Zulu
(UTC)
Morning civil twilight06:0711:07
Sunrise06:3411:34
Sunset19:0600:06
Evening civil twilight19:3300:33

Current date and time
Zulu (UTC)  30-Mar-2020 20:18:52
Local (UTC-5)  30-Mar-2020 15:18:52
 
METAR
KKY8 
23nm NW 
301955Z AUTO VRB05G11KT 10SM CLR 18/01 A3014 RMK A01
KFTK 
23nm E 
301956Z AUTO 30008KT 10SM CLR 18/M02 A3012 RMK AO2 SLP201 T01801023 $
KEKX 
27nm E 
301955Z AUTO 29009KT 10SM CLR 17/M01 A3013 RMK AO2 T01701014
KOWB 
35nm W 
301956Z 33005KT 10SM CLR 17/01 A3015 RMK AO2 SLP210 T01670011
KHNB 
38nm NW 
301956Z AUTO 35012G15KT 10SM CLR 16/01 A3013 RMK AO2 PRESFR SLP203 T01610011
KSDF 
42nm NE 
301956Z 31007KT 10SM OVC210 18/M02 A3011 RMK AO2 SLP194 T01831017
KBRY 
45nm E 
301955Z AUTO 32008KT 277V337 10SM CLR 18/M02 A3009 RMK AO1
KI19 
45nm W 
301956Z AUTO 32007G17KT 10SM OVC046 12/01 A3010 RMK AO2 T01150007
KFRH 
45nm N 
301955Z AUTO 32008KT 10SM CLR 15/M02 A3013 RMK AO1
KLOU 
45nm NE 
301953Z 30012G20KT 10SM CLR 17/M01 A3011 RMK AO2 SLP194 T01721006
TAF
KFTK 
23nm E 
301700Z 3017/3123 28009KT 9999 FEW250 QNH3005INS TEMPO 3017/3021 28012G18KT BECMG 3023/3024 31006KT 9999 FEW025 SCT200 QNH2995INS BECMG 3114/3115 02009KT 9999 SCT025 SCT090 QNH2993INS BECMG 3117/3118 34009KT 9999 BKN025 QNH2988INS TX19/3020Z TN06/3113Z
NOTAMs
Click for the latest NOTAMs
NOTAMs are issued by the DoD/FAA and will open in a separate window not controlled by AirNav.

 

 
 

Would you like to see your business listed on this page?

 If your business provides an interesting product or service to pilots, flight crews, aircraft, or users of the B M H Heliport, you should consider listing it here.  To start the listing process, click on the button below
 
Add a business
 

Other Pages about B M H Heliport

Update a link
 
Copyright © AirNav, LLC. All rights reserved. Privacy Policy  Contact